Time;durP1;ratioP1;P1;durP2;ratioP2;P2;SDS_P1;SDS_P2;PMS_P1;PMS_P2;Temp;Humidity;BMP_temperature;BMP_pressure;BME280_temperature;BME280_humidity;BME280_pressure;Samples;Min_cycle;Max_cycle;Signal;HPM_P1;HPM_P2
2022/04/19 00:02:05;;;;;;;12.85;3.67;;;19.40;74.70;;;;;;4946414;28;20043;-74
2022/04/19 02:28:46;;;;;;;16.50;9.65;;;18.30;78.10;;;;;;5167488;27;20425;-69
2022/04/19 02:31:13;;;;;;;23.98;10.93;;;18.50;78.50;;;;;;5132495;27;20031;-73
2022/04/19 02:33:39;;;;;;;12.98;7.43;;;18.50;78.20;;;;;;5133201;27;20386;-73
2022/04/19 02:36:06;;;;;;;16.88;6.60;;;18.50;78.00;;;;;;5133841;27;20114;-68
2022/04/19 02:38:32;;;;;;;21.42;4.85;;;18.60;77.80;;;;;;5133600;27;20022;-68
2022/04/19 02:40:59;;;;;;;16.75;4.65;;;18.60;77.60;;;;;;5136151;27;20469;-69
2022/04/19 02:43:25;;;;;;;10.60;3.22;;;18.60;77.50;;;;;;5130977;27;20023;-68
2022/04/19 02:45:54;;;;;;;12.80;3.53;;;18.60;77.40;;;;;;5133543;27;20027;-70
2022/04/19 02:48:21;;;;;;;9.40;3.40;;;18.60;77.30;;;;;;5130022;27;20031;-69
2022/04/19 02:50:49;;;;;;;15.38;3.22;;;18.60;77.20;;;;;;5129996;27;20022;-70
2022/04/19 02:53:15;;;;;;;13.82;4.13;;;18.60;77.10;;;;;;5135186;27;20031;-69
2022/04/19 02:55:42;;;;;;;14.73;4.13;;;18.60;77.10;;;;;;5134225;27;20473;-70
2022/04/19 02:58:08;;;;;;;17.85;4.93;;;18.60;77.10;;;;;;5133921;27;20034;-73
2022/04/19 03:00:35;;;;;;;9.52;4.03;;;18.60;77.00;;;;;;5132469;27;20054;-69
2022/04/19 03:03:01;;;;;;;15.50;3.47;;;18.60;76.90;;;;;;5133775;27;20015;-71
2022/04/19 03:05:28;;;;;;;6.15;3.60;;;18.60;76.90;;;;;;5133813;27;20028;-69
2022/04/19 03:07:54;;;;;;;9.73;3.42;;;18.60;76.90;;;;;;5129842;27;20438;-69
2022/04/19 03:10:21;;;;;;;11.35;3.88;;;18.60;76.80;;;;;;5136707;27;20015;-68
2022/04/19 03:12:50;;;;;;;13.15;4.57;;;18.60;76.80;;;;;;5128268;27;20371;-70
2022/04/19 03:15:18;;;;;;;13.38;6.38;;;18.60;76.90;;;;;;5135875;27;20019;-68
2022/04/19 03:17:44;;;;;;;14.15;4.00;;;18.60;76.90;;;;;;5128390;27;20036;-70
2022/04/19 03:20:11;;;;;;;25.50;5.55;;;18.60;76.80;;;;;;5136639;27;20023;-72
2022/04/19 03:28:11;;;;;;;13.70;4.32;;;18.60;76.80;;;;;;5127256;27;20511;-71
2022/04/19 03:30:39;;;;;;;7.03;3.50;;;18.60;76.80;;;;;;5116282;27;20594;-68
2022/04/19 03:33:05;;;;;;;15.82;4.07;;;18.50;76.70;;;;;;5115907;27;20104;-68
2022/04/19 03:35:36;;;;;;;13.73;5.93;;;18.50;76.70;;;;;;5115477;27;20043;-68
2022/04/19 03:38:05;;;;;;;15.30;4.25;;;18.50;76.70;;;;;;5121597;27;20015;-70
2022/04/19 03:40:32;;;;;;;14.05;4.75;;;18.50;76.70;;;;;;5118500;27;20102;-68
2022/04/19 03:42:58;;;;;;;14.43;4.93;;;18.50;76.70;;;;;;5112759;27;20381;-69
2022/04/19 03:45:25;;;;;;;16.17;4.57;;;18.50;76.70;;;;;;5115103;27;20020;-68
2022/04/19 03:47:52;;;;;;;17.23;4.38;;;18.50;76.60;;;;;;5119217;27;20038;-74
2022/04/19 03:50:18;;;;;;;8.40;2.90;;;18.50;76.50;;;;;;5119957;27;20023;-68
2022/04/19 03:52:45;;;;;;;10.20;3.83;;;18.50;76.40;;;;;;5121089;27;20381;-70
2022/04/19 03:55:12;;;;;;;6.65;3.35;;;18.40;76.30;;;;;;5118853;27;20455;-68
2022/04/19 03:57:38;;;;;;;12.25;4.05;;;18.40;76.30;;;;;;5118094;27;20363;-69
2022/04/19 04:00:06;;;;;;;9.90;4.18;;;18.40;76.40;;;;;;5116019;27;20107;-70
2022/04/19 04:02:33;;;;;;;13.00;3.92;;;18.40;76.40;;;;;;5116276;27;20012;-68
2022/04/19 04:04:59;;;;;;;18.60;5.90;;;18.40;76.30;;;;;;5117153;27;20102;-69
2022/04/19 04:07:30;;;;;;;7.32;3.72;;;18.40;76.30;;;;;;5114891;27;20007;-69
2022/04/19 04:09:57;;;;;;;8.45;3.78;;;18.40;76.30;;;;;;5115560;27;20065;-72
2022/04/19 04:12:23;;;;;;;13.10;4.90;;;18.40;76.30;;;;;;5110652;27;20032;-75
2022/04/19 04:14:50;;;;;;;14.07;3.10;;;18.40;76.20;;;;;;5114728;27;20039;-75
2022/04/19 04:17:19;;;;;;;18.77;4.15;;;18.40;76.10;;;;;;5115069;27;20114;-78
2022/04/19 04:19:45;;;;;;;9.73;4.15;;;18.40;76.20;;;;;;5126271;27;20055;-78
2022/04/19 04:22:12;;;;;;;15.18;4.28;;;18.40;77.20;;;;;;5111806;27;20030;-69
2022/04/19 04:24:38;;;;;;;9.23;3.75;;;18.40;77.70;;;;;;5115023;27;20506;-71
2022/04/19 04:27:05;;;;;;;10.27;3.38;;;18.40;77.40;;;;;;5114620;27;20040;-76
2022/04/19 04:29:31;;;;;;;14.02;4.60;;;18.40;77.10;;;;;;5116785;27;20027;-80
2022/04/19 04:31:58;;;;;;;19.88;8.10;;;18.40;77.50;;;;;;5116138;27;20098;-77
2022/04/19 04:34:24;;;;;;;15.15;7.88;;;18.40;76.70;;;;;;5117820;27;20042;-74
2022/04/19 04:36:51;;;;;;;25.33;10.55;;;18.30;76.60;;;;;;5116305;27;20110;-74
2022/04/19 04:39:17;;;;;;;17.13;7.50;;;18.40;76.90;;;;;;5117301;27;20016;-77
2022/04/19 04:41:45;;;;;;;13.40;5.15;;;18.30;76.90;;;;;;5112674;27;20047;-75
2022/04/19 04:44:12;;;;;;;13.77;4.72;;;18.30;76.90;;;;;;5111672;27;20044;-73
2022/04/19 04:49:35;;;;;;;10.48;3.33;;;18.30;76.80;;;;;;5114433;27;20082;-77
2022/04/19 04:52:22;;;;;;;17.25;3.38;;;18.30;76.70;;;;;;5110653;27;20027;-75
2022/04/19 04:54:49;;;;;;;12.73;3.42;;;18.30;76.70;;;;;;5115738;27;20096;-73
2022/04/19 04:57:15;;;;;;;11.75;3.90;;;18.30;76.70;;;;;;5115148;27;20486;-76
2022/04/19 04:59:44;;;;;;;17.38;4.55;;;18.40;76.70;;;;;;5111621;27;20028;-77
2022/04/19 05:02:10;;;;;;;13.80;3.78;;;18.30;76.70;;;;;;5116172;27;20056;-72
2022/04/19 05:04:37;;;;;;;15.63;3.83;;;18.30;76.70;;;;;;5116319;27;20031;-75
2022/04/19 05:07:04;;;;;;;13.93;3.83;;;18.30;76.50;;;;;;5113436;27;20161;-73
2022/04/19 05:09:30;;;;;;;10.68;3.10;;;18.30;76.40;;;;;;5118694;27;20019;-73
2022/04/19 05:12:36;;;;;;;7.80;2.92;;;18.30;76.40;;;;;;5119018;27;20022;-71
2022/04/19 05:15:42;;;;;;;7.13;4.22;;;18.30;76.20;;;;;;5108441;27;20027;-71
2022/04/19 05:18:48;;;;;;;8.73;2.78;;;18.30;76.10;;;;;;5112840;27;20035;-71
2022/04/19 05:21:55;;;;;;;6.68;3.42;;;18.30;76.00;;;;;;5116262;27;20035;-72
2022/04/19 05:25:01;;;;;;;10.27;3.00;;;18.30;75.90;;;;;;5112999;27;20024;-75
2022/04/19 05:28:07;;;;;;;10.77;3.25;;;18.30;75.80;;;;;;5116048;27;20035;-77
2022/04/19 05:31:13;;;;;;;9.98;2.95;;;18.30;75.70;;;;;;5116115;27;20027;-73
2022/04/19 05:34:19;;;;;;;9.77;2.83;;;18.30;75.70;;;;;;5121187;27;20482;-74
2022/04/19 05:37:26;;;;;;;14.32;3.47;;;18.30;75.60;;;;;;5116047;27;20398;-75
2022/04/19 05:40:32;;;;;;;10.55;3.10;;;18.20;75.50;;;;;;5115975;27;20404;-72
2022/04/19 05:43:30;;;;;;;8.10;2.80;;;18.20;75.50;;;;;;5121787;27;20431;-80
2022/04/19 05:45:59;;;;;;;9.15;2.85;;;18.20;75.50;;;;;;5110944;27;20482;-70
2022/04/19 05:48:26;;;;;;;7.93;2.70;;;18.20;75.50;;;;;;5112643;27;20111;-71
2022/04/19 05:50:53;;;;;;;6.43;2.88;;;18.20;75.60;;;;;;5121643;27;20031;-77
2022/04/19 05:53:20;;;;;;;8.13;2.90;;;18.20;75.70;;;;;;5118262;27;20103;-79
2022/04/19 05:55:47;;;;;;;12.73;3.75;;;18.20;75.70;;;;;;5125345;27;20423;-77
2022/04/19 05:58:14;;;;;;;10.20;3.20;;;18.20;75.70;;;;;;5111261;27;20019;-73
2022/04/19 06:00:41;;;;;;;7.53;3.38;;;18.20;75.70;;;;;;5114908;27;20020;-76
2022/04/19 06:05:52;;;;;;;10.33;3.50;;;18.20;75.80;;;;;;5106244;27;20384;-76
2022/04/19 06:08:19;;;;;;;7.40;3.55;;;18.20;75.90;;;;;;5116451;27;20431;-70
2022/04/19 06:10:48;;;;;;;16.15;3.30;;;18.20;76.00;;;;;;5118947;27;20019;-73
2022/04/19 06:13:14;;;;;;;11.23;2.70;;;18.20;76.20;;;;;;5112074;28;20021;-76
2022/04/19 06:15:41;;;;;;;9.70;3.40;;;18.20;76.50;;;;;;5111666;28;20815;-72
2022/04/19 06:18:07;;;;;;;11.02;4.13;;;18.20;77.00;;;;;;5117899;28;20058;-78
2022/04/19 06:20:34;;;;;;;11.43;3.10;;;18.30;77.30;;;;;;5123823;28;20038;-70
2022/04/19 06:23:00;;;;;;;5.50;2.92;;;18.30;77.50;;;;;;5116768;28;20073;-73
2022/04/19 06:25:27;;;;;;;7.82;3.17;;;18.30;77.60;;;;;;5115770;28;20047;-72
2022/04/19 06:27:59;;;;;;;15.80;2.90;;;18.30;78.40;;;;;;5110212;28;20133;-76
2022/04/19 06:30:26;;;;;;;18.25;3.88;;;18.30;77.70;;;;;;5114439;28;20452;-70
2022/04/19 06:32:53;;;;;;;5.50;2.72;;;18.40;77.90;;;;;;5118676;27;20011;-75
2022/04/19 06:35:19;;;;;;;11.40;2.28;;;18.40;78.10;;;;;;5114548;28;20028;-72
2022/04/19 06:37:47;;;;;;;13.27;3.17;;;18.40;78.30;;;;;;5102996;28;20158;-70
2022/04/19 06:40:13;;;;;;;9.68;2.55;;;18.40;78.50;;;;;;5117566;28;20562;-75
2022/04/19 06:42:40;;;;;;;8.55;4.35;;;18.50;78.60;;;;;;5116110;28;20059;-72
2022/04/19 06:45:07;;;;;;;11.00;3.05;;;18.50;78.70;;;;;;5116306;27;20019;-75
2022/04/19 06:47:35;;;;;;;22.25;3.50;;;18.50;78.80;;;;;;5120890;27;20077;-71
2022/04/19 06:50:02;;;;;;;10.65;2.92;;;18.60;79.10;;;;;;5115428;27;20022;-74
2022/04/19 06:52:29;;;;;;;13.10;3.08;;;18.60;79.20;;;;;;5110190;28;20034;-72
2022/04/19 06:54:56;;;;;;;8.55;3.50;;;18.60;79.30;;;;;;5113373;28;20411;-75
2022/04/19 06:57:23;;;;;;;7.50;2.83;;;18.70;79.30;;;;;;5115577;28;20032;-72
2022/04/19 06:59:49;;;;;;;7.25;2.75;;;18.60;79.30;;;;;;5116092;28;20026;-73
2022/04/19 07:02:16;;;;;;;7.15;3.05;;;18.70;79.40;;;;;;5115434;27;20031;-75
2022/04/19 07:04:43;;;;;;;9.05;2.65;;;18.70;79.40;;;;;;5124950;27;20034;-73
2022/04/19 07:07:10;;;;;;;7.07;2.78;;;18.80;79.40;;;;;;5116580;27;20020;-72
2022/04/19 07:09:37;;;;;;;8.02;2.58;;;18.80;79.30;;;;;;5120266;27;20015;-73
2022/04/19 07:12:04;;;;;;;8.98;3.05;;;18.80;79.20;;;;;;5119460;27;20072;-72
2022/04/19 07:14:31;;;;;;;10.10;2.97;;;18.80;79.40;;;;;;5118704;27;20065;-72
2022/04/19 07:16:58;;;;;;;7.47;2.88;;;18.80;79.50;;;;;;5117948;27;20043;-71
2022/04/19 07:19:25;;;;;;;6.63;2.97;;;18.90;79.40;;;;;;5118481;27;20031;-71
2022/04/19 07:27:24;;;;;;;11.50;4.55;;;19.00;79.30;;;;;;5117630;27;20092;-71
2022/04/19 07:29:50;;;;;;;12.25;5.63;;;19.00;79.00;;;;;;5117173;27;20019;-72
2022/04/19 07:32:17;;;;;;;11.02;4.82;;;19.10;78.80;;;;;;5125896;27;20016;-73
2022/04/19 07:34:43;;;;;;;13.10;6.93;;;19.10;78.60;;;;;;5116598;27;20031;-77
2022/04/19 07:37:10;;;;;;;13.85;5.38;;;19.10;78.30;;;;;;5116311;27;20123;-71
2022/04/19 07:39:36;;;;;;;18.60;7.90;;;19.10;78.20;;;;;;5116822;27;20019;-76
2022/04/19 07:42:03;;;;;;;12.23;7.03;;;19.20;78.10;;;;;;5114616;27;20114;-75
2022/04/19 07:44:31;;;;;;;14.10;8.18;;;19.20;78.00;;;;;;5116687;27;20032;-75
2022/04/19 07:46:57;;;;;;;12.25;7.78;;;19.20;78.00;;;;;;5119983;27;20027;-74
2022/04/19 07:49:24;;;;;;;14.23;7.47;;;19.30;78.10;;;;;;5124189;27;20015;-75
2022/04/19 07:51:50;;;;;;;17.40;9.52;;;19.30;78.00;;;;;;5119684;27;20030;-73
2022/04/19 07:54:16;;;;;;;14.25;7.70;;;19.30;78.10;;;;;;5123415;27;20019;-74
2022/04/19 07:56:43;;;;;;;14.27;8.10;;;19.40;78.40;;;;;;5119680;27;20122;-75
2022/04/19 07:59:09;;;;;;;14.70;6.75;;;19.40;78.30;;;;;;5123504;27;20564;-73
2022/04/19 08:01:36;;;;;;;12.55;6.65;;;19.50;78.10;;;;;;5117253;27;20470;-73
2022/04/19 08:04:02;;;;;;;13.18;5.82;;;19.60;77.80;;;;;;5121132;27;20041;-75
2022/04/19 10:26:16;;;;;;;16.92;6.65;;;22.90;61.10;;;;;;6180580;22;2011630;-74
2022/04/19 10:28:45;;;;;;;12.80;6.28;;;23.80;57.80;;;;;;6234520;23;20075;-74
2022/04/19 10:31:12;;;;;;;25.17;6.75;;;23.90;57.10;;;;;;6249659;23;20039;-73
2022/04/19 10:33:39;;;;;;;11.75;6.43;;;23.90;57.20;;;;;;6250877;23;20091;-73
2022/04/19 10:36:14;;;;;;;16.13;5.88;;;24.10;56.70;;;;;;6249387;23;19996;-71
2022/04/19 10:38:41;;;;;;;;;;;24.20;56.90;;;;;;6251263;23;20376;-71
2022/04/19 10:41:07;;;;;;;12.50;5.97;;;24.30;56.10;;;;;;6249781;23;19907;-75
2022/04/19 10:43:34;;;;;;;7.78;4.75;;;24.40;55.50;;;;;;6250302;23;20300;-75
2022/04/19 10:46:36;;;;;;;16.40;6.85;;;24.50;55.30;;;;;;6249951;23;20442;-71
2022/04/19 10:49:24;;;;;;;12.90;6.25;;;24.60;54.80;;;;;;6101950;23;20016;-71
2022/04/19 10:51:52;;;;;;;14.25;6.40;;;24.70;54.80;;;;;;6244212;23;20004;-72
2022/04/19 10:55:01;;;;;;;14.45;5.43;;;24.80;55.20;;;;;;6249708;23;20131;-72
2022/04/19 11:00:27;;;;;;;19.48;7.07;;;25.00;54.80;;;;;;6250435;23;20093;-70
2022/04/19 11:03:00;;;;;;;9.52;5.82;;;25.10;54.40;;;;;;6249697;23;20024;-73
2022/04/19 11:05:46;;;;;;;13.95;6.38;;;25.20;54.20;;;;;;6249465;23;20004;-73
2022/04/19 11:08:31;;;;;;;15.48;5.90;;;25.30;54.70;;;;;;6250164;23;20035;-74
2022/04/19 11:10:58;;;;;;;16.48;6.40;;;25.30;54.80;;;;;;6249090;23;20008;-73
2022/04/19 11:13:28;;;;;;;15.63;4.85;;;25.40;55.00;;;;;;6250260;23;20019;-73
2022/04/19 11:16:02;;;;;;;14.48;6.63;;;25.50;54.70;;;;;;6249727;23;20487;-71
2022/04/19 11:18:30;;;;;;;17.03;5.90;;;25.50;54.70;;;;;;6249278;23;20019;-73
2022/04/19 11:21:04;;;;;;;13.60;5.05;;;25.60;54.70;;;;;;6250290;23;20231;-71
2022/04/19 11:23:48;;;;;;;12.18;5.30;;;25.60;54.20;;;;;;6248867;23;20075;-71
2022/04/19 11:26:33;;;;;;;8.13;4.43;;;25.70;54.00;;;;;;6243845;23;20486;-74
2022/04/19 11:29:26;;;;;;;;;;;25.70;54.00;;;;;;6243404;23;20004;-74
2022/04/19 11:31:52;;;;;;;12.50;5.95;;;25.80;54.10;;;;;;6234827;23;19955;-71
2022/04/19 11:34:18;;;;;;;8.43;4.55;;;25.90;54.00;;;;;;6243466;23;20394;-71
2022/04/19 11:36:45;;;;;;;13.57;5.90;;;25.90;53.60;;;;;;6242003;23;20026;-71
2022/04/19 11:46:44;;;;;;;12.07;4.43;;;26.00;53.30;;;;;;6243247;23;20000;-71
2022/04/19 11:48:00;;;;;;;21.13;6.15;;;26.20;52.50;;;;;;6243252;23;20054;-72
2022/04/19 11:50:31;;;;;;;8.13;4.47;;;26.30;52.40;;;;;;6242614;23;20001;-72
2022/04/19 11:52:58;;;;;;;13.65;4.63;;;26.30;51.70;;;;;;6242432;23;20024;-72
2022/04/19 11:55:27;;;;;;;16.90;4.50;;;26.30;51.40;;;;;;6242958;23;20423;-72
2022/04/19 11:58:03;;;;;;;8.68;4.75;;;26.40;51.50;;;;;;6241646;23;20004;-72
2022/04/19 12:00:29;;;;;;;12.30;4.55;;;26.40;50.80;;;;;;6243319;23;20019;-71
2022/04/19 12:02:57;;;;;;;11.38;4.18;;;26.50;50.50;;;;;;6241643;23;20412;-71
2022/04/19 12:05:27;;;;;;;13.20;3.75;;;26.50;49.90;;;;;;6242784;23;20740;-71
2022/04/19 12:07:55;;;;;;;8.10;3.33;;;26.60;49.20;;;;;;6242556;23;20004;-71
2022/04/19 12:10:23;;;;;;;10.60;4.05;;;26.60;49.40;;;;;;6242228;23;20789;-71
2022/04/19 12:12:50;;;;;;;9.30;3.72;;;26.60;48.90;;;;;;6243208;23;20046;-71
2022/04/19 12:15:41;;;;;;;8.90;3.70;;;26.70;48.90;;;;;;6241267;23;20000;-72
2022/04/19 12:18:10;;;;;;;8.00;3.63;;;26.70;48.90;;;;;;6215113;23;20423;-72
2022/04/19 12:20:43;;;;;;;9.77;4.10;;;26.70;48.50;;;;;;6242019;23;20001;-72
2022/04/19 12:23:20;;;;;;;9.07;3.35;;;26.80;47.70;;;;;;6242327;23;20035;-72
2022/04/19 12:26:10;;;;;;;8.27;3.42;;;26.80;47.70;;;;;;6242962;23;20316;-72
2022/04/19 12:28:42;;;;;;;9.60;3.08;;;26.80;47.50;;;;;;6241360;23;19996;-71
2022/04/19 12:31:28;;;;;;;8.98;3.83;;;26.90;47.30;;;;;;6242710;23;20456;-72
2022/04/19 12:33:55;;;;;;;9.07;3.05;;;26.90;47.20;;;;;;6242204;23;20012;-72
2022/04/19 12:36:25;;;;;;;9.00;3.63;;;27.00;46.80;;;;;;6241455;23;20012;-72
2022/04/19 12:39:05;;;;;;;11.50;3.40;;;27.00;46.70;;;;;;6242436;23;20032;-74
2022/04/19 12:41:44;;;;;;;6.82;3.13;;;27.00;46.30;;;;;;6241359;23;20497;-72
2022/04/19 12:44:16;;;;;;;8.73;3.53;;;27.00;46.10;;;;;;6242626;23;20428;-72
2022/04/19 12:46:46;;;;;;;9.43;3.75;;;27.10;45.40;;;;;;6242143;23;19996;-72
2022/04/19 12:49:24;;;;;;;9.43;3.65;;;27.10;45.20;;;;;;6242009;23;19992;-74
2022/04/19 12:52:02;;;;;;;6.45;2.25;;;27.20;45.30;;;;;;6242499;23;20324;-73
2022/04/19 12:54:29;;;;;;;5.20;2.85;;;27.20;44.90;;;;;;6241008;23;20398;-72
2022/04/19 12:56:57;;;;;;;7.65;2.90;;;27.20;44.70;;;;;;6242857;23;19996;-73
2022/04/19 12:59:24;;;;;;;6.43;2.85;;;27.30;44.30;;;;;;6241574;23;20079;-74
2022/04/19 13:01:51;;;;;;;7.93;3.38;;;27.30;44.10;;;;;;6242146;23;20001;-72
2022/04/19 13:04:17;;;;;;;5.80;3.05;;;27.40;44.10;;;;;;6242051;23;20007;-72
2022/04/19 13:12:17;;;;;;;7.47;3.58;;;27.50;42.80;;;;;;6241050;23;20015;-72
2022/04/19 13:14:44;;;;;;;9.70;2.78;;;27.50;42.90;;;;;;6241828;23;20062;-72
2022/04/19 13:17:14;;;;;;;10.93;3.05;;;27.60;42.80;;;;;;6241355;23;20088;-71
2022/04/19 13:19:42;;;;;;;9.85;3.25;;;27.60;42.70;;;;;;6241326;23;20027;-72
2022/04/19 13:22:12;;;;;;;4.15;2.10;;;27.60;42.60;;;;;;6242253;23;19996;-72
2022/04/19 13:24:39;;;;;;;9.27;3.70;;;27.60;42.50;;;;;;6240978;23;20445;-72
2022/04/19 13:27:15;;;;;;;8.48;2.25;;;27.60;42.60;;;;;;6242256;23;20508;-72
2022/04/19 13:29:42;;;;;;;9.18;3.17;;;27.70;42.00;;;;;;6240944;23;20010;-73
2022/04/19 13:32:10;;;;;;;7.45;2.05;;;27.70;41.80;;;;;;6241906;23;20000;-72
2022/04/19 13:34:36;;;;;;;6.85;2.35;;;27.80;41.60;;;;;;6241651;23;20012;-72
2022/04/19 13:37:04;;;;;;;11.98;2.90;;;27.80;41.60;;;;;;6241118;23;20469;-73
2022/04/19 13:39:30;;;;;;;13.82;3.63;;;27.80;41.80;;;;;;6241990;23;20023;-72
2022/04/19 13:41:57;;;;;;;9.23;2.38;;;27.80;41.90;;;;;;6240879;23;20004;-71
2022/04/19 13:44:24;;;;;;;7.63;2.38;;;27.80;41.70;;;;;;6241830;23;20007;-73
2022/04/19 13:46:52;;;;;;;8.75;2.47;;;27.80;41.40;;;;;;6213876;23;20967;-71
2022/04/19 13:49:19;;;;;;;3.72;2.28;;;27.80;40.90;;;;;;6241804;23;19992;-71
2022/04/19 13:51:45;;;;;;;9.35;2.50;;;27.80;40.60;;;;;;6241526;23;20035;-72
2022/04/19 13:54:17;;;;;;;10.95;3.38;;;27.80;40.80;;;;;;6241293;23;20015;-72
2022/04/19 13:56:46;;;;;;;6.88;3.15;;;27.80;41.30;;;;;;6242016;23;20371;-73
2022/04/19 13:59:14;;;;;;;9.82;2.72;;;27.80;41.50;;;;;;6240475;23;20079;-72
2022/04/19 14:01:41;;;;;;;6.05;2.60;;;27.80;41.60;;;;;;6241226;23;20327;-73
2022/04/19 14:04:09;;;;;;;9.05;3.17;;;27.80;41.70;;;;;;6240690;23;20004;-73
2022/04/19 14:06:39;;;;;;;3.95;2.65;;;27.80;41.70;;;;;;6215104;23;20004;-72
2022/04/19 14:09:07;;;;;;;15.73;3.03;;;27.80;42.00;;;;;;6214406;23;20008;-72
2022/04/19 14:11:35;;;;;;;11.18;3.10;;;27.80;42.20;;;;;;6241151;23;20292;-71
2022/04/19 14:14:05;;;;;;;12.23;4.00;;;27.80;42.20;;;;;;6214877;23;20382;-73
2022/04/19 14:16:33;;;;;;;15.43;3.17;;;27.80;42.70;;;;;;6240568;23;20000;-72
2022/04/19 14:19:00;;;;;;;12.45;2.90;;;27.70;42.80;;;;;;6242130;23;20083;-72
2022/04/19 14:21:26;;;;;;;7.60;3.08;;;27.70;42.90;;;;;;6240547;23;20008;-72
2022/04/19 14:23:53;;;;;;;8.63;2.65;;;27.70;43.10;;;;;;6241981;23;20003;-72
2022/04/19 14:26:19;;;;;;;6.32;2.55;;;27.70;43.30;;;;;;6240902;23;20390;-73
2022/04/19 14:34:16;;;;;;;33.95;22.52;;;27.60;43.20;;;;;;6240720;23;20019;-73
2022/04/19 14:36:42;;;;;;;44.88;33.85;;;27.60;43.20;;;;;;6241176;23;20036;-73
2022/04/19 14:39:09;;;;;;;24.00;16.10;;;27.60;43.30;;;;;;6241122;23;20000;-73
2022/04/19 14:41:35;;;;;;;13.23;7.68;;;27.60;43.70;;;;;;6241378;23;20069;-73
2022/04/19 14:44:02;;;;;;;11.63;6.15;;;27.60;43.60;;;;;;6240589;23;20004;-73
2022/04/19 14:46:28;;;;;;;25.30;6.10;;;27.50;43.60;;;;;;6238530;23;20008;-70
2022/04/19 14:48:55;;;;;;;17.13;4.63;;;27.50;43.80;;;;;;6240538;23;20008;-73
2022/04/19 14:54:06;;;;;;;11.57;3.63;;;27.40;44.80;;;;;;6240780;23;20107;-72
2022/04/19 14:56:33;;;;;;;15.07;4.38;;;27.30;45.30;;;;;;6240159;23;20754;-73
2022/04/19 14:59:00;;;;;;;48.30;43.22;;;27.30;45.30;;;;;;6239873;23;20380;-76
2022/04/19 15:01:27;;;;;;;39.58;26.98;;;27.20;44.90;;;;;;6242077;23;20007;-76
2022/04/19 15:11:30;;;;;;;23.52;9.52;;;27.00;46.10;;;;;;6242318;23;20391;-74
2022/04/19 15:13:57;;;;;;;23.08;10.00;;;27.00;46.50;;;;;;6243511;23;20019;-72
2022/04/19 15:16:23;;;;;;;33.92;10.65;;;26.90;46.20;;;;;;6245290;23;20004;-72
2022/04/19 15:42:24;;;;;;;25.50;8.25;;;26.40;45.40;;;;;;6228795;23;20356;-72
2022/04/19 15:44:51;;;;;;;16.55;6.80;;;26.30;46.00;;;;;;6238249;23;20036;-74
2022/04/19 15:47:17;;;;;;;8.90;5.28;;;26.20;46.40;;;;;;6239125;23;20008;-70
2022/04/19 15:49:44;;;;;;;20.02;13.60;;;26.20;46.70;;;;;;6240548;23;20296;-74
2022/04/19 15:52:10;;;;;;;24.08;10.88;;;26.10;46.90;;;;;;6239864;23;20464;-71
2022/04/19 15:54:37;;;;;;;18.67;7.10;;;26.00;47.00;;;;;;6237655;23;20012;-71
2022/04/19 16:00:26;;;;;;;13.75;5.45;;;26.00;46.90;;;;;;6236669;23;20926;-74
2022/04/19 19:37:04;;;;;;;4.22;2.53;;;23.60;50.70;;;;;;4981666;28;2365193;-66
2022/04/19 19:39:32;;;;;;;5.88;1.98;;;23.60;51.00;;;;;;5063472;28;20021;-66
2022/04/19 19:41:59;;;;;;;6.80;2.80;;;23.60;51.00;;;;;;5068289;28;20021;-67
2022/04/19 19:44:27;;;;;;;8.68;3.47;;;23.60;51.00;;;;;;5063686;28;20048;-70
2022/04/19 19:46:54;;;;;;;6.65;3.30;;;23.60;51.00;;;;;;5064278;28;20456;-66
2022/04/19 19:49:21;;;;;;;7.40;3.00;;;23.60;51.10;;;;;;5069290;28;20387;-68
2022/04/19 19:51:48;;;;;;;7.18;2.75;;;23.60;51.10;;;;;;5067637;28;20036;-66
2022/04/19 19:54:15;;;;;;;4.45;2.58;;;23.60;51.20;;;;;;5068775;28;20028;-67
2022/04/19 19:56:42;;;;;;;6.47;3.38;;;23.50;51.20;;;;;;5064084;28;20036;-67
2022/04/19 19:59:09;;;;;;;6.82;2.92;;;23.50;51.40;;;;;;5070364;28;20360;-66
2022/04/19 20:01:36;;;;;;;6.88;3.22;;;23.50;51.50;;;;;;5066735;28;20578;-66
2022/04/19 20:04:03;;;;;;;8.15;3.17;;;23.50;51.40;;;;;;5068115;28;20017;-67
2022/04/19 20:06:29;;;;;;;8.85;4.10;;;23.50;51.40;;;;;;5066352;28;20498;-67
2022/04/19 20:08:56;;;;;;;5.75;2.60;;;23.50;51.30;;;;;;5069052;28;20017;-66
2022/04/19 20:11:23;;;;;;;6.07;2.83;;;23.50;51.20;;;;;;5067991;28;20075;-68
2022/04/19 20:13:50;;;;;;;9.05;3.15;;;23.50;51.20;;;;;;5067500;28;20020;-67
2022/04/19 20:16:16;;;;;;;3.75;2.30;;;23.50;51.20;;;;;;5064762;28;20031;-68
2022/04/19 20:18:43;;;;;;;9.32;2.63;;;23.50;51.30;;;;;;5068172;28;20035;-68
2022/04/19 20:21:09;;;;;;;3.75;2.00;;;23.50;51.50;;;;;;5067909;28;20055;-68
2022/04/19 20:23:36;;;;;;;6.65;2.67;;;23.50;51.30;;;;;;5061811;28;20104;-72
2022/04/19 20:26:04;;;;;;;7.32;2.47;;;23.50;51.50;;;;;;5066734;28;20004;-67
2022/04/19 20:28:31;;;;;;;5.63;2.20;;;23.50;51.80;;;;;;5067083;28;20078;-70
2022/04/19 20:30:57;;;;;;;8.20;3.13;;;23.50;51.80;;;;;;5060581;28;20514;-66
2022/04/19 20:33:24;;;;;;;6.70;3.25;;;23.50;51.90;;;;;;5065100;28;20048;-70
2022/04/19 20:35:50;;;;;;;8.68;3.08;;;23.50;52.10;;;;;;5065255;28;20035;-70
2022/04/19 20:38:17;;;;;;;6.25;2.53;;;23.50;52.40;;;;;;5064649;28;20459;-69
2022/04/19 20:40:44;;;;;;;6.97;2.78;;;23.40;52.40;;;;;;5064238;28;20533;-69
2022/04/19 20:43:11;;;;;;;5.53;2.35;;;23.50;52.60;;;;;;5063239;28;20496;-68
2022/04/19 20:45:37;;;;;;;5.05;2.97;;;23.40;52.70;;;;;;5064533;28;20029;-70
2022/04/19 20:50:52;;;;;;;6.95;2.78;;;23.40;53.20;;;;;;5065283;28;20520;-70
2022/04/19 20:53:18;;;;;;;9.23;3.13;;;23.40;53.30;;;;;;5064299;28;20453;-70
2022/04/19 20:55:48;;;;;;;11.27;2.92;;;23.40;53.50;;;;;;5064803;28;20020;-70
2022/04/19 20:58:14;;;;;;;7.45;2.70;;;23.40;53.70;;;;;;5068152;28;20419;-68
2022/04/19 21:00:43;;;;;;;7.10;3.17;;;23.40;53.90;;;;;;5062139;28;20040;-70
2022/04/19 21:03:09;;;;;;;10.18;3.00;;;23.40;54.00;;;;;;5068724;28;20103;-68
2022/04/19 21:05:36;;;;;;;5.50;2.45;;;23.30;54.00;;;;;;5066956;28;20475;-70
2022/04/19 21:08:03;;;;;;;6.70;3.17;;;23.30;54.10;;;;;;5069122;28;20031;-66
2022/04/19 21:10:29;;;;;;;6.15;2.90;;;23.40;54.90;;;;;;5064211;28;20028;-68
2022/04/19 21:12:56;;;;;;;10.93;3.13;;;23.30;54.50;;;;;;5064584;28;20044;-71
2022/04/19 21:15:23;;;;;;;8.60;3.22;;;23.40;54.70;;;;;;5063914;28;20527;-70
2022/04/19 21:17:49;;;;;;;7.18;4.13;;;23.30;54.80;;;;;;5063194;28;20027;-70
2022/04/19 21:20:17;;;;;;;7.68;3.00;;;23.30;54.90;;;;;;5065184;28;20111;-70
2022/04/19 21:22:47;;;;;;;9.35;3.70;;;23.30;55.00;;;;;;5067283;28;20053;-70
2022/04/19 21:25:18;;;;;;;8.52;3.20;;;23.30;55.10;;;;;;5065830;28;20429;-69
2022/04/19 21:27:45;;;;;;;6.95;3.83;;;23.30;55.10;;;;;;5066697;28;20390;-70
2022/04/19 21:30:12;;;;;;;10.70;3.58;;;23.30;55.30;;;;;;5066239;28;20028;-68
2022/04/19 21:32:40;;;;;;;6.50;3.63;;;23.30;55.60;;;;;;5065639;28;20033;-67
2022/04/19 21:35:09;;;;;;;6.05;3.88;;;23.30;55.60;;;;;;5063909;28;20475;-69
2022/04/19 21:37:36;;;;;;;9.15;3.50;;;23.20;55.70;;;;;;5064390;28;20048;-67
2022/04/19 21:40:08;;;;;;;5.97;3.65;;;23.20;55.80;;;;;;5066307;28;20092;-70
2022/04/19 21:42:35;;;;;;;8.43;3.20;;;23.20;56.00;;;;;;5067146;28;20115;-69
2022/04/19 21:45:01;;;;;;;10.85;3.90;;;23.20;55.90;;;;;;5067262;28;20066;-66
2022/04/19 21:47:28;;;;;;;5.53;3.38;;;23.20;56.00;;;;;;5066729;28;20031;-66
2022/04/19 21:49:54;;;;;;;6.35;4.13;;;23.20;56.10;;;;;;5066224;28;20056;-69
2022/04/19 21:52:21;;;;;;;13.48;3.38;;;23.20;56.00;;;;;;5063419;28;20403;-67
2022/04/19 21:54:47;;;;;;;8.23;3.65;;;23.10;56.00;;;;;;5067620;28;20029;-70
2022/04/19 21:57:14;;;;;;;4.38;3.47;;;23.10;56.20;;;;;;5066235;28;20024;-67
2022/04/19 21:59:40;;;;;;;8.45;3.60;;;23.10;56.10;;;;;;5066225;28;20032;-67
2022/04/19 22:02:08;;;;;;;9.20;3.78;;;23.10;56.20;;;;;;5061476;28;20025;-67
2022/04/19 22:04:35;;;;;;;10.23;3.65;;;23.10;56.30;;;;;;5064064;28;20044;-67
2022/04/19 22:07:01;;;;;;;7.18;3.10;;;23.10;56.20;;;;;;5065908;28;20552;-72
2022/04/19 22:09:28;;;;;;;8.30;4.45;;;23.00;56.20;;;;;;5065041;28;20025;-70
2022/04/19 22:11:54;;;;;;;11.32;4.28;;;23.00;56.30;;;;;;5059374;28;20478;-70
2022/04/19 22:14:21;;;;;;;12.77;4.28;;;23.00;56.30;;;;;;5067281;28;20107;-69
2022/04/19 22:16:48;;;;;;;14.70;3.83;;;23.00;56.40;;;;;;5065462;28;20115;-66
2022/04/19 22:19:16;;;;;;;9.15;3.80;;;23.00;56.50;;;;;;5063789;28;20360;-68
2022/04/19 22:21:42;;;;;;;9.43;3.67;;;23.00;56.50;;;;;;5066757;28;20472;-66
2022/04/19 22:24:09;;;;;;;12.23;4.80;;;23.00;56.50;;;;;;5065563;28;20070;-66
2022/04/19 22:26:35;;;;;;;11.13;3.42;;;23.00;56.50;;;;;;5066743;28;20108;-64
2022/04/19 22:29:02;;;;;;;9.10;3.17;;;23.00;56.60;;;;;;5065554;28;20021;-66